createdAt,value
2018-02-18T00:00:25.113Z,68.35
2018-02-18T00:02:52.801Z,77.50
2018-02-18T00:05:20.363Z,71.30
2018-02-18T00:07:47.959Z,71.12
2018-02-18T00:10:15.597Z,71.40
2018-02-18T00:12:43.928Z,76.12
2018-02-18T00:15:11.515Z,75.90
2018-02-18T00:17:39.118Z,69.15
2018-02-18T00:20:06.766Z,77.05
2018-02-18T00:22:35.159Z,68.28
2018-02-18T00:25:02.816Z,70.10
2018-02-18T00:27:30.411Z,65.47
2018-02-18T00:29:57.984Z,66.37
2018-02-18T00:32:25.567Z,62.15
2018-02-18T00:34:53.943Z,65.53
2018-02-18T00:37:21.527Z,73.87
2018-02-18T00:39:49.135Z,69.28
2018-02-18T00:42:16.712Z,63.38
2018-02-18T00:44:44.355Z,67.68
2018-02-18T00:47:11.964Z,66.80
2018-02-18T00:49:39.579Z,66.25
2018-02-18T00:52:07.207Z,66.55
2018-02-18T00:54:34.820Z,62.35
2018-02-18T00:57:02.454Z,66.57
2018-02-18T00:59:30.082Z,68.70
2018-02-18T01:01:57.683Z,77.53
2018-02-18T01:04:25.261Z,67.05
2018-02-18T01:06:52.884Z,69.80
2018-02-18T01:09:20.470Z,76.53
2018-02-18T01:11:48.071Z,75.65
2018-02-18T01:14:15.655Z,69.05
2018-02-18T01:16:43.228Z,74.93
2018-02-18T01:19:10.836Z,71.82
2018-02-18T01:21:39.205Z,72.62
2018-02-18T01:24:06.845Z,66.18
2018-02-18T01:26:34.415Z,67.05
2018-02-18T01:29:02.044Z,65.80
2018-02-18T01:31:29.587Z,70.53
2018-02-18T01:33:57.791Z,62.30
2018-02-18T01:36:25.386Z,68.40
2018-02-18T01:38:52.962Z,67.50
2018-02-18T01:41:20.565Z,65.78
2018-02-18T01:43:48.143Z,62.90
2018-02-18T01:46:15.756Z,59.65
2018-02-18T01:48:43.333Z,54.10
2018-02-18T01:51:10.940Z,60.35
2018-02-18T01:53:38.579Z,61.97
2018-02-18T01:56:06.171Z,55.95
2018-02-18T01:58:34.549Z,74.87
2018-02-18T02:01:02.919Z,67.57
2018-02-18T02:03:30.539Z,70.93
2018-02-18T02:05:58.191Z,67.85
2018-02-18T02:08:25.788Z,64.15
2018-02-18T02:10:53.347Z,65.72
2018-02-18T02:13:20.954Z,67.60
2018-02-18T02:15:48.543Z,65.78
2018-02-18T02:18:16.102Z,64.03
2018-02-18T02:20:43.709Z,62.95
2018-02-18T02:23:12.062Z,63.33
2018-02-18T02:25:39.675Z,70.37
2018-02-18T02:28:07.243Z,59.28
2018-02-18T02:30:34.852Z,68.28
2018-02-18T02:33:02.512Z,68.78
2018-02-18T02:35:30.108Z,61.13
2018-02-18T02:37:57.699Z,61.80
2018-02-18T02:40:25.295Z,69.00
2018-02-18T02:42:52.914Z,61.83
2018-02-18T02:45:20.588Z,66.53
2018-02-18T02:47:48.207Z,67.25
2018-02-18T02:50:15.811Z,58.05
2018-02-18T02:52:43.407Z,60.70
2018-02-18T02:55:11.001Z,69.03
2018-02-18T02:57:38.595Z,64.20
2018-02-18T03:00:06.236Z,58.75
2018-02-18T03:02:33.809Z,67.53
2018-02-18T03:05:02.164Z,61.40
2018-02-18T03:07:29.771Z,59.03
2018-02-18T03:09:57.331Z,61.10
2018-02-18T03:12:24.936Z,64.28
2018-02-18T03:14:52.535Z,67.53
2018-02-18T03:17:20.147Z,66.00
2018-02-18T03:19:48.478Z,62.65
2018-02-18T03:22:16.096Z,60.97
2018-02-18T03:24:43.656Z,68.22
2018-02-18T03:27:11.268Z,66.55
2018-02-18T03:29:38.835Z,72.80
2018-02-18T03:32:06.459Z,63.78
2018-02-18T03:34:34.030Z,71.90
2018-02-18T03:37:01.661Z,71.43
2018-02-18T03:39:29.293Z,68.75
2018-02-18T03:41:57.685Z,59.90
2018-02-18T03:44:25.252Z,55.50
2018-02-18T03:46:52.829Z,60.80
2018-02-18T03:49:20.417Z,63.28
2018-02-18T03:51:48.031Z,68.35
2018-02-18T03:54:15.663Z,63.25
2018-02-18T03:56:44.043Z,73.18
2018-02-18T03:59:12.444Z,65.40
2018-02-18T04:01:40.003Z,75.25
2018-02-18T04:04:07.638Z,110.20
2018-02-18T04:06:35.214Z,75.37
2018-02-18T04:09:03.586Z,73.82
2018-02-18T04:11:31.951Z,80.10
2018-02-18T04:13:59.580Z,71.93
2018-02-18T04:16:27.186Z,93.97
2018-02-18T04:18:55.563Z,87.30
2018-02-18T04:21:41.699Z,85.15
2018-02-18T04:24:09.299Z,75.68
2018-02-18T04:26:36.935Z,78.15
2018-02-18T04:29:04.527Z,85.47
2018-02-18T04:31:32.136Z,82.62
2018-02-18T04:33:59.702Z,90.22
2018-02-18T04:36:27.343Z,83.18
2018-02-18T04:38:54.931Z,84.57
2018-02-18T04:41:22.539Z,79.72
2018-02-18T04:43:50.867Z,78.00
2018-02-18T04:46:18.461Z,80.90
2018-02-18T04:48:46.055Z,82.62
2018-02-18T04:51:13.631Z,82.32
2018-02-18T04:53:41.200Z,77.25
2018-02-18T04:56:08.775Z,77.75
2018-02-18T04:58:36.400Z,87.03
2018-02-18T05:01:03.989Z,82.60
2018-02-18T05:03:31.590Z,81.00
2018-02-18T05:05:59.247Z,91.65
2018-02-18T05:08:26.859Z,84.65
2018-02-18T05:10:54.452Z,82.57
2018-02-18T05:13:22.054Z,76.50
2018-02-18T05:15:49.635Z,87.15
2018-02-18T05:18:17.219Z,87.07
2018-02-18T05:20:44.809Z,87.70
2018-02-18T05:23:12.385Z,82.12
2018-02-18T05:25:40.794Z,81.18
2018-02-18T05:28:09.150Z,80.12
2018-02-18T05:30:36.761Z,81.47
2018-02-18T05:33:04.336Z,77.20
2018-02-18T05:35:31.935Z,69.05
2018-02-18T05:37:59.539Z,78.47
2018-02-18T05:40:27.171Z,72.00
2018-02-18T05:42:54.753Z,76.07
2018-02-18T05:45:22.355Z,76.28
2018-02-18T05:47:50.699Z,75.28
2018-02-18T05:50:19.153Z,82.15
2018-02-18T05:52:46.751Z,77.40
2018-02-18T05:55:14.390Z,76.18
2018-02-18T05:57:41.984Z,79.18
2018-02-18T06:00:09.588Z,75.28
2018-02-18T06:02:37.195Z,74.78
2018-02-18T06:05:04.830Z,78.68
2018-02-18T06:07:32.491Z,76.62
2018-02-18T06:10:00.119Z,82.22
2018-02-18T06:12:27.704Z,79.90
2018-02-18T06:14:55.304Z,79.18
2018-02-18T06:17:22.904Z,83.35
2018-02-18T06:19:50.475Z,83.15
2018-02-18T06:22:18.976Z,79.12
2018-02-18T06:24:46.620Z,83.82
2018-02-18T06:36:03.265Z,79.53
2018-02-18T06:38:30.840Z,84.22
2018-02-18T06:40:58.447Z,85.12
2018-02-18T06:43:26.054Z,78.87
2018-02-18T06:45:53.638Z,81.50
2018-02-18T06:48:21.236Z,76.95
2018-02-18T06:50:48.825Z,77.32
2018-02-18T06:53:16.427Z,79.37
2018-02-18T06:55:44.006Z,77.62
2018-02-18T07:06:50.866Z,77.72
2018-02-18T07:09:22.192Z,68.07
2018-02-18T07:11:49.816Z,68.60
2018-02-18T07:14:17.407Z,80.87
2018-02-18T07:16:45.011Z,64.65
2018-02-18T07:19:12.622Z,55.67
2018-02-18T07:21:40.212Z,61.00
2018-02-18T07:24:08.564Z,59.75
2018-02-18T07:26:36.187Z,65.78
2018-02-18T07:29:03.768Z,60.53
2018-02-18T07:31:31.377Z,68.28
2018-02-18T07:33:59.031Z,63.97
2018-02-18T07:36:27.427Z,54.80
2018-02-18T07:38:57.032Z,65.62
2018-02-18T07:41:24.652Z,75.65
2018-02-18T07:43:52.251Z,67.95
2018-02-18T07:46:19.820Z,60.50
2018-02-18T07:51:44.374Z,61.58
2018-02-18T07:54:11.963Z,59.38
2018-02-18T07:56:40.364Z,60.80
2018-02-18T07:59:08.513Z,60.05
2018-02-18T08:01:36.903Z,62.58
2018-02-18T08:04:04.483Z,55.55
2018-02-18T08:06:32.087Z,59.50
2018-02-18T08:08:59.717Z,57.00
2018-02-18T08:11:27.356Z,55.63
2018-02-18T08:13:54.983Z,53.30
2018-02-18T08:16:22.617Z,55.88
2018-02-18T08:18:50.229Z,64.45
2018-02-18T08:21:18.580Z,53.13
2018-02-18T08:23:46.245Z,53.50
2018-02-18T08:26:13.843Z,55.35
2018-02-18T08:28:41.451Z,54.70
2018-02-18T08:31:09.055Z,50.45
2018-02-18T08:33:36.648Z,54.80
2018-02-18T08:36:04.247Z,57.78
2018-02-18T08:38:31.838Z,52.50
2018-02-18T08:40:59.448Z,53.33
2018-02-18T08:43:27.010Z,52.30
2018-02-18T08:45:54.624Z,53.45
2018-02-18T08:48:22.200Z,49.17
2018-02-18T08:50:49.796Z,49.05
2018-02-18T08:53:17.356Z,55.97
2018-02-18T08:55:44.919Z,53.35
2018-02-18T08:58:12.515Z,61.63
2018-02-18T09:00:40.100Z,53.28
2018-02-18T09:03:07.714Z,60.40
2018-02-18T09:05:36.051Z,51.90
2018-02-18T09:08:03.632Z,56.85
2018-02-18T09:10:31.294Z,54.85
2018-02-18T09:12:58.943Z,56.53
2018-02-18T09:15:26.529Z,51.85
2018-02-18T09:17:54.078Z,48.50
2018-02-18T09:20:21.677Z,42.88
2018-02-18T09:22:49.261Z,46.45
2018-02-18T09:25:16.885Z,45.20
2018-02-18T09:27:44.728Z,44.33
2018-02-18T09:30:13.095Z,45.88
2018-02-18T09:32:40.720Z,53.10
2018-02-18T09:35:08.318Z,43.08
2018-02-18T09:37:35.935Z,43.83
2018-02-18T09:40:21.538Z,41.30
2018-02-18T09:42:49.187Z,42.55
2018-02-18T09:45:16.807Z,45.08
2018-02-18T09:47:45.181Z,43.30
2018-02-18T09:50:13.608Z,38.22
2018-02-18T09:52:41.244Z,41.35
2018-02-18T09:55:08.840Z,38.72
2018-02-18T09:57:36.428Z,41.83
2018-02-18T10:00:04.788Z,41.47
2018-02-18T10:02:32.375Z,43.70
2018-02-18T10:05:00.732Z,44.90
2018-02-18T10:07:28.345Z,43.92
2018-02-18T10:09:55.956Z,48.42
2018-02-18T10:12:23.573Z,48.15
2018-02-18T10:14:51.205Z,57.62
2018-02-18T10:17:18.812Z,56.72
2018-02-18T10:19:46.396Z,52.20
2018-02-18T10:22:13.970Z,55.20
2018-02-18T10:24:41.566Z,48.92
2018-02-18T10:27:09.188Z,49.90
2018-02-18T10:29:36.775Z,55.08
2018-02-18T10:32:04.389Z,58.87
2018-02-18T10:34:31.959Z,56.42
2018-02-18T10:36:59.604Z,51.35
2018-02-18T10:39:27.192Z,48.50
2018-02-18T10:41:54.804Z,51.75
2018-02-18T10:44:22.401Z,51.22
2018-02-18T10:46:50.017Z,55.80
2018-02-18T10:49:19.075Z,62.28
2018-02-18T10:51:47.479Z,55.72
2018-02-18T10:54:15.097Z,57.13
2018-02-18T10:56:42.720Z,49.13
2018-02-18T10:59:10.329Z,54.58
2018-02-18T11:01:38.828Z,50.50
2018-02-18T11:04:07.190Z,48.45
2018-02-18T11:06:35.554Z,51.80
2018-02-18T11:09:03.121Z,50.70
2018-02-18T11:11:30.700Z,54.97
2018-02-18T11:13:58.306Z,58.70
2018-02-18T11:16:29.472Z,56.33
2018-02-18T11:18:57.126Z,56.30
2018-02-18T11:21:24.712Z,58.03
2018-02-18T11:23:53.099Z,54.42
2018-02-18T11:26:21.433Z,62.25
2018-02-18T11:28:49.021Z,59.47
2018-02-18T11:31:16.627Z,59.30
2018-02-18T11:33:44.260Z,59.33
2018-02-18T11:36:12.626Z,57.92
2018-02-18T11:38:41.038Z,63.45
2018-02-18T11:41:08.652Z,66.07
2018-02-18T11:43:36.287Z,58.58
2018-02-18T11:46:03.939Z,60.85
2018-02-18T11:48:31.583Z,56.00
2018-02-18T11:50:59.199Z,57.90
2018-02-18T11:53:26.811Z,61.85
2018-02-18T11:55:54.444Z,62.45
2018-02-18T11:58:22.843Z,57.22
2018-02-18T12:00:50.480Z,55.95
2018-02-18T12:03:18.848Z,55.92
2018-02-18T12:05:47.193Z,58.30
2018-02-18T12:08:14.807Z,51.05
2018-02-18T12:10:43.196Z,55.45
2018-02-18T12:13:10.763Z,50.83
2018-02-18T12:15:38.396Z,50.80
2018-02-18T12:18:07.500Z,47.15
2018-02-18T12:20:35.896Z,51.17
2018-02-18T12:23:03.531Z,52.58
2018-02-18T12:25:31.917Z,42.25
2018-02-18T12:27:59.535Z,43.42
2018-02-18T12:30:27.126Z,43.97
2018-02-18T12:32:55.540Z,48.05
2018-02-18T12:35:23.114Z,40.03
2018-02-18T12:37:50.710Z,43.38
2018-02-18T12:40:18.312Z,39.35
2018-02-18T12:42:45.888Z,42.17
2018-02-18T12:45:13.516Z,48.60
2018-02-18T12:47:45.036Z,47.55
2018-02-18T12:50:12.654Z,44.92
2018-02-18T12:52:40.264Z,46.50
2018-02-18T12:55:07.870Z,51.25
2018-02-18T12:57:39.275Z,41.53
2018-02-18T13:00:06.837Z,47.28
2018-02-18T13:02:34.452Z,46.42
2018-02-18T13:05:02.112Z,47.05
2018-02-18T13:07:29.718Z,46.58
2018-02-18T13:09:57.359Z,48.30
2018-02-18T13:12:25.970Z,46.45
2018-02-18T13:14:54.342Z,43.13
2018-02-18T13:17:22.739Z,40.60
2018-02-18T13:19:51.115Z,49.78
2018-02-18T13:22:19.497Z,49.35
2018-02-18T13:24:47.881Z,45.63
2018-02-18T13:27:16.249Z,47.38
2018-02-18T13:29:44.620Z,48.83
2018-02-18T13:32:12.179Z,51.78
2018-02-18T13:34:40.691Z,49.72
2018-02-18T13:37:08.270Z,51.85
2018-02-18T13:39:35.868Z,47.58
2018-02-18T13:42:03.479Z,51.70
2018-02-18T13:44:31.071Z,44.47
2018-02-18T13:46:58.665Z,47.62
2018-02-18T13:49:27.012Z,48.35
2018-02-18T13:51:56.034Z,47.75
2018-02-18T13:54:28.117Z,48.97
2018-02-18T13:56:55.729Z,49.67
2018-02-18T13:59:23.321Z,47.10
2018-02-18T14:01:51.700Z,50.47
2018-02-18T14:04:20.063Z,43.63
2018-02-18T14:06:47.651Z,44.33
2018-02-18T14:09:15.257Z,48.33
2018-02-18T14:11:42.867Z,45.20
2018-02-18T14:14:11.246Z,46.05
2018-02-18T14:16:39.585Z,51.85
2018-02-18T14:19:07.205Z,44.85
2018-02-18T14:21:34.793Z,41.30
2018-02-18T14:24:02.418Z,44.10
2018-02-18T14:26:30.041Z,48.33
2018-02-18T14:28:57.641Z,48.65
2018-02-18T14:31:25.232Z,49.78
2018-02-18T14:33:52.811Z,53.05
2018-02-18T14:36:20.411Z,46.00
2018-02-18T14:38:47.989Z,45.78
2018-02-18T14:41:27.552Z,52.05
2018-02-18T14:47:19.402Z,49.50
2018-02-18T14:49:58.758Z,52.22
2018-02-18T14:52:38.143Z,54.63
2018-02-18T14:55:12.354Z,53.45
2018-02-18T14:57:39.914Z,51.70
2018-02-18T15:00:07.443Z,53.63
2018-02-18T15:02:35.068Z,55.83
2018-02-18T15:05:02.643Z,55.85
2018-02-18T15:07:30.244Z,54.95
2018-02-18T15:09:57.875Z,55.30
2018-02-18T15:12:25.513Z,49.40
2018-02-18T15:14:53.115Z,61.25
2018-02-18T15:17:21.471Z,52.80
2018-02-18T15:19:49.067Z,60.10
2018-02-18T15:22:16.624Z,63.30
2018-02-18T15:24:44.247Z,56.55
2018-02-18T15:27:11.899Z,58.17
2018-02-18T15:29:39.520Z,54.75
2018-02-18T15:32:07.137Z,61.37
2018-02-18T15:37:27.830Z,58.13
2018-02-18T15:39:55.411Z,59.38
2018-02-18T15:42:23.011Z,60.42
2018-02-18T15:44:50.576Z,62.90
2018-02-18T15:47:18.191Z,58.25
2018-02-18T15:49:45.778Z,57.85
2018-02-18T15:52:14.147Z,53.28
2018-02-18T15:54:42.557Z,49.88
2018-02-18T15:57:10.191Z,46.92
2018-02-18T15:59:38.532Z,47.10
2018-02-18T16:02:06.174Z,41.95
2018-02-18T16:04:33.744Z,40.12
2018-02-18T16:07:01.331Z,43.95
2018-02-18T16:09:28.953Z,43.28
2018-02-18T16:11:57.136Z,38.70
2018-02-18T16:14:24.737Z,42.58
2018-02-18T16:16:53.137Z,43.55
2018-02-18T16:19:20.752Z,39.22
2018-02-18T16:21:48.383Z,45.70
2018-02-18T16:24:15.972Z,46.58
2018-02-18T16:26:43.584Z,40.75
2018-02-18T16:29:11.161Z,42.65
2018-02-18T16:31:38.803Z,38.75
2018-02-18T16:34:06.407Z,41.40
2018-02-18T16:36:33.973Z,43.47
2018-02-18T16:39:01.603Z,42.10
2018-02-18T16:41:29.219Z,44.35
2018-02-18T16:44:01.435Z,49.40
2018-02-18T16:46:29.053Z,43.45
2018-02-18T16:48:57.431Z,42.13
2018-02-18T16:51:25.809Z,43.05
2018-02-18T16:53:54.231Z,40.92
2018-02-18T16:56:21.908Z,36.88
2018-02-18T16:58:55.843Z,34.08
2018-02-18T17:01:23.399Z,37.13
2018-02-18T17:03:56.820Z,39.58
2018-02-18T17:06:25.189Z,36.10
2018-02-18T17:08:53.597Z,41.72
2018-02-18T17:11:21.168Z,41.37
2018-02-18T17:13:48.764Z,42.05
2018-02-18T17:16:16.327Z,37.70
2018-02-18T17:18:43.967Z,46.25
2018-02-18T17:21:11.530Z,43.95
2018-02-18T17:23:39.132Z,40.80
2018-02-18T17:26:07.518Z,43.80
2018-02-18T17:28:35.159Z,45.00
2018-02-18T17:31:02.768Z,43.72
2018-02-18T17:33:30.353Z,44.42
2018-02-18T17:35:57.960Z,44.15
2018-02-18T17:38:26.337Z,42.17
2018-02-18T17:40:54.733Z,41.75
2018-02-18T17:43:22.361Z,46.28
2018-02-18T17:45:53.294Z,50.58
2018-02-18T17:48:22.940Z,50.90
2018-02-18T17:50:50.548Z,52.20
2018-02-18T17:53:18.193Z,47.80
2018-02-18T17:55:45.759Z,47.78
2018-02-18T17:58:13.386Z,53.75
2018-02-18T18:00:41.000Z,47.28
2018-02-18T18:03:08.679Z,51.55
2018-02-18T18:05:37.042Z,48.95
2018-02-18T18:11:04.408Z,50.90
2018-02-18T18:13:32.020Z,55.28
2018-02-18T18:15:59.635Z,51.00
2018-02-18T18:18:27.280Z,54.00
2018-02-18T18:20:54.910Z,62.62
2018-02-18T18:23:22.511Z,61.13
2018-02-18T18:28:50.911Z,47.17
2018-02-18T18:31:24.520Z,50.42
2018-02-18T18:33:53.111Z,53.60
2018-02-18T18:36:31.193Z,65.82
2018-02-18T18:42:01.509Z,48.35
2018-02-18T18:44:29.119Z,56.65
2018-02-18T18:50:01.695Z,51.22
2018-02-18T18:52:29.265Z,55.83
2018-02-18T18:54:56.897Z,54.78
2018-02-18T18:57:24.496Z,51.05
2018-02-18T18:59:52.092Z,61.45
2018-02-18T19:02:19.664Z,55.25
2018-02-18T19:04:47.346Z,52.05
2018-02-18T19:07:14.961Z,65.70
2018-02-18T19:09:42.628Z,59.88
2018-02-18T19:12:10.238Z,72.60
2018-02-18T19:14:37.868Z,122.82
2018-02-18T19:17:05.499Z,60.85
2018-02-18T19:19:33.895Z,57.20
2018-02-18T19:27:49.710Z,71.20
2018-02-18T19:30:17.288Z,78.00
2018-02-18T19:32:44.869Z,66.62
2018-02-18T19:35:12.498Z,63.85
2018-02-18T19:37:40.136Z,55.28
2018-02-18T19:40:08.539Z,61.95
2018-02-18T19:42:36.134Z,61.80
2018-02-18T19:45:03.775Z,64.60
2018-02-18T19:47:31.343Z,72.05
2018-02-18T19:49:58.945Z,64.75
2018-02-18T19:52:27.351Z,63.95
2018-02-18T19:54:55.696Z,68.37
2018-02-18T19:57:23.298Z,63.92
2018-02-18T19:59:50.903Z,56.45
2018-02-18T20:02:18.556Z,69.68
2018-02-18T20:04:46.138Z,58.97
2018-02-18T20:07:13.763Z,66.10
2018-02-18T20:09:42.123Z,60.63
2018-02-18T20:12:09.687Z,58.60
2018-02-18T20:14:37.312Z,69.68
2018-02-18T20:17:05.667Z,90.10
2018-02-18T20:19:33.301Z,70.50
2018-02-18T20:22:00.931Z,81.93
2018-02-18T20:24:28.513Z,71.87
2018-02-18T20:26:56.108Z,49.30
2018-02-18T20:29:23.725Z,43.10
2018-02-18T20:31:51.324Z,39.80
2018-02-18T20:34:18.888Z,37.17
2018-02-18T20:36:46.527Z,38.88
2018-02-18T20:39:14.120Z,41.13
2018-02-18T20:41:56.977Z,38.65
2018-02-18T20:44:24.594Z,36.72
2018-02-18T20:46:52.239Z,37.92
2018-02-18T20:49:19.823Z,34.10
2018-02-18T20:51:48.228Z,36.08
2018-02-18T20:54:15.833Z,39.67
2018-02-18T20:56:43.418Z,32.45
2018-02-18T20:59:11.046Z,29.50
2018-02-18T21:01:38.640Z,32.47
2018-02-18T21:04:06.236Z,31.67
2018-02-18T21:06:33.888Z,27.90
2018-02-18T21:09:02.266Z,31.02
2018-02-18T21:11:29.919Z,23.55
2018-02-18T21:13:58.276Z,23.15
2018-02-18T21:16:25.879Z,25.00
2018-02-18T21:18:53.459Z,26.80
2018-02-18T21:21:21.087Z,28.17
2018-02-18T21:23:48.709Z,24.63
2018-02-18T21:26:16.344Z,24.50
2018-02-18T21:28:43.903Z,25.33
2018-02-18T21:31:11.489Z,26.15
2018-02-18T21:33:39.063Z,28.00
2018-02-18T21:36:06.671Z,26.45
2018-02-18T21:38:34.259Z,26.73
2018-02-18T21:41:01.899Z,28.48
2018-02-18T21:43:29.508Z,26.77
2018-02-18T21:45:57.903Z,28.02
2018-02-18T21:48:26.263Z,27.83
2018-02-18T21:50:54.645Z,24.75
2018-02-18T21:53:22.238Z,25.62
2018-02-18T21:55:50.757Z,29.33
2018-02-18T21:58:18.384Z,25.02
2018-02-18T22:00:46.063Z,31.70
2018-02-18T22:03:13.665Z,26.50
2018-02-18T22:05:41.309Z,26.67
2018-02-18T22:08:08.974Z,26.67
2018-02-18T22:10:36.574Z,27.58
2018-02-18T22:13:04.212Z,31.58
2018-02-18T22:15:32.579Z,31.90
2018-02-18T22:18:00.160Z,26.48
2018-02-18T22:20:28.529Z,27.08
2018-02-18T22:22:56.892Z,27.70
2018-02-18T22:25:24.519Z,28.33
2018-02-18T22:27:52.106Z,28.70
2018-02-18T22:30:19.724Z,28.42
2018-02-18T22:32:47.288Z,26.50
2018-02-18T22:35:14.924Z,25.80
2018-02-18T22:37:43.333Z,27.70
2018-02-18T22:40:10.979Z,30.40
2018-02-18T22:42:39.339Z,27.50
2018-02-18T22:45:07.725Z,21.10
2018-02-18T22:47:36.068Z,24.00
2018-02-18T22:50:03.697Z,21.50
2018-02-18T22:52:32.039Z,23.52
2018-02-18T22:55:00.444Z,20.65
2018-02-18T22:57:28.088Z,20.75
2018-02-18T22:59:55.658Z,21.92
2018-02-18T23:02:23.312Z,22.98
2018-02-18T23:04:50.911Z,25.15
2018-02-18T23:07:18.549Z,21.52
2018-02-18T23:09:46.164Z,23.67
2018-02-18T23:12:13.801Z,23.85
2018-02-18T23:14:41.369Z,26.17
2018-02-18T23:17:08.990Z,22.80
2018-02-18T23:19:36.594Z,27.95
2018-02-18T23:22:04.174Z,28.23
2018-02-18T23:24:32.579Z,28.30
2018-02-18T23:27:00.212Z,29.12
2018-02-18T23:29:28.546Z,21.62
2018-02-18T23:31:56.201Z,21.55
2018-02-18T23:34:23.779Z,25.20
2018-02-18T23:36:51.385Z,21.67
2018-02-18T23:39:18.964Z,24.00
2018-02-18T23:41:46.592Z,23.87
2018-02-18T23:44:14.979Z,24.42
2018-02-18T23:46:43.371Z,22.90
2018-02-18T23:49:10.995Z,24.73
2018-02-18T23:51:38.553Z,28.80
2018-02-18T23:54:16.402Z,25.52
2018-02-18T23:56:43.981Z,25.12
2018-02-18T23:59:11.579Z,24.12
